sensor_id;sensor_type;location;lat;lon;timestamp;pressure;altitude;pressure_sealevel;temperature;humidity
55990;BME280;41875;55.806;38.082;2022-12-11T00:01:16;98498.56;;;4.07;61.74
55990;BME280;41875;55.806;38.082;2022-12-11T00:03:45;98520.44;;;4.35;61.69
55990;BME280;41875;55.806;38.082;2022-12-11T00:06:18;98508.03;;;3.70;62.82
55990;BME280;41875;55.806;38.082;2022-12-11T00:08:50;98534.75;;;3.93;62.61
55990;BME280;41875;55.806;38.082;2022-12-11T00:11:19;98526.53;;;4.16;62.42
55990;BME280;41875;55.806;38.082;2022-12-11T00:13:48;98525.50;;;4.37;61.88
55990;BME280;41875;55.806;38.082;2022-12-11T00:16:17;98532.94;;;4.41;61.70
55990;BME280;41875;55.806;38.082;2022-12-11T00:18:52;98537.38;;;4.41;61.26
55990;BME280;41875;55.806;38.082;2022-12-11T00:21:22;98529.34;;;4.42;61.51
55990;BME280;41875;55.806;38.082;2022-12-11T00:23:51;98527.06;;;4.30;61.84
55990;BME280;41875;55.806;38.082;2022-12-11T00:26:19;98524.19;;;4.23;61.95
55990;BME280;41875;55.806;38.082;2022-12-11T00:28:52;98515.31;;;4.34;61.94
55990;BME280;41875;55.806;38.082;2022-12-11T00:31:22;98504.69;;;3.97;62.73
55990;BME280;41875;55.806;38.082;2022-12-11T00:33:51;98512.19;;;4.20;62.14
55990;BME280;41875;55.806;38.082;2022-12-11T00:36:23;98510.06;;;4.34;62.01
55990;BME280;41875;55.806;38.082;2022-12-11T00:38:52;98508.53;;;4.41;61.45
55990;BME280;41875;55.806;38.082;2022-12-11T00:41:21;98514.31;;;4.45;61.51
55990;BME280;41875;55.806;38.082;2022-12-11T00:43:49;98506.09;;;4.30;62.04
55990;BME280;41875;55.806;38.082;2022-12-11T00:46:19;98507.59;;;3.75;63.14
55990;BME280;41875;55.806;38.082;2022-12-11T00:48:47;98507.66;;;4.50;61.86
55990;BME280;41875;55.806;38.082;2022-12-11T00:51:17;98508.41;;;4.33;61.95
55990;BME280;41875;55.806;38.082;2022-12-11T00:53:47;98502.72;;;4.75;60.62
55990;BME280;41875;55.806;38.082;2022-12-11T00:56:18;98510.94;;;4.24;62.04
55990;BME280;41875;55.806;38.082;2022-12-11T00:58:48;98505.19;;;4.49;61.17
55990;BME280;41875;55.806;38.082;2022-12-11T01:01:18;98511.22;;;4.59;60.79
55990;BME280;41875;55.806;38.082;2022-12-11T01:03:47;98518.16;;;4.78;60.48
55990;BME280;41875;55.806;38.082;2022-12-11T01:06:18;98520.44;;;4.35;61.80
55990;BME280;41875;55.806;38.082;2022-12-11T01:08:48;98520.03;;;4.58;61.10
55990;BME280;41875;55.806;38.082;2022-12-11T01:11:40;98531.38;;;4.58;61.37
55990;BME280;41875;55.806;38.082;2022-12-11T01:14:08;98530.28;;;4.51;61.60
55990;BME280;41875;55.806;38.082;2022-12-11T01:16:37;98532.88;;;4.61;61.00
55990;BME280;41875;55.806;38.082;2022-12-11T01:19:05;98528.72;;;4.68;61.00
55990;BME280;41875;55.806;38.082;2022-12-11T01:21:34;98534.00;;;4.58;60.90
55990;BME280;41875;55.806;38.082;2022-12-11T01:24:04;98534.03;;;4.77;60.95
55990;BME280;41875;55.806;38.082;2022-12-11T01:26:33;98535.25;;;4.82;60.37
55990;BME280;41875;55.806;38.082;2022-12-11T01:29:02;98544.56;;;4.95;59.83
55990;BME280;41875;55.806;38.082;2022-12-11T01:31:30;98543.81;;;4.84;59.97
55990;BME280;41875;55.806;38.082;2022-12-11T01:33:59;98547.59;;;4.44;61.10
55990;BME280;41875;55.806;38.082;2022-12-11T01:36:28;98540.84;;;4.69;60.46
55990;BME280;41875;55.806;38.082;2022-12-11T01:38:56;98537.22;;;4.42;60.86
55990;BME280;41875;55.806;38.082;2022-12-11T01:41:26;98539.78;;;4.15;61.96
55990;BME280;41875;55.806;38.082;2022-12-11T01:44:00;98548.13;;;3.90;62.61
55990;BME280;41875;55.806;38.082;2022-12-11T01:46:33;98536.91;;;4.08;62.74
55990;BME280;41875;55.806;38.082;2022-12-11T01:49:04;98537.00;;;3.59;64.20
55990;BME280;41875;55.806;38.082;2022-12-11T01:51:38;98539.44;;;3.11;65.94
55990;BME280;41875;55.806;38.082;2022-12-11T01:54:10;98538.25;;;2.74;67.56
55990;BME280;41875;55.806;38.082;2022-12-11T01:56:42;98537.69;;;2.71;67.73
55990;BME280;41875;55.806;38.082;2022-12-11T01:59:14;98547.78;;;2.95;67.01
55990;BME280;41875;55.806;38.082;2022-12-11T02:01:48;98544.16;;;3.57;65.11
55990;BME280;41875;55.806;38.082;2022-12-11T02:04:18;98537.94;;;3.58;65.02
55990;BME280;41875;55.806;38.082;2022-12-11T02:06:51;98540.44;;;3.30;65.10
55990;BME280;41875;55.806;38.082;2022-12-11T02:09:22;98541.09;;;3.12;66.30
55990;BME280;41875;55.806;38.082;2022-12-11T02:12:01;98536.97;;;3.69;64.48
55990;BME280;41875;55.806;38.082;2022-12-11T02:14:37;98547.59;;;3.67;64.37
55990;BME280;41875;55.806;38.082;2022-12-11T02:17:12;98556.69;;;3.33;65.74
55990;BME280;41875;55.806;38.082;2022-12-11T02:19:52;98553.41;;;3.61;64.58
55990;BME280;41875;55.806;38.082;2022-12-11T02:22:36;98544.31;;;3.55;64.23
55990;BME280;41875;55.806;38.082;2022-12-11T02:25:15;98538.75;;;3.19;66.04
55990;BME280;41875;55.806;38.082;2022-12-11T02:27:52;98543.59;;;3.63;64.87
55990;BME280;41875;55.806;38.082;2022-12-11T02:30:25;98543.16;;;3.28;65.05
55990;BME280;41875;55.806;38.082;2022-12-11T02:32:55;98549.53;;;3.45;65.23
55990;BME280;41875;55.806;38.082;2022-12-11T02:35:29;98554.34;;;3.50;65.12
55990;BME280;41875;55.806;38.082;2022-12-11T02:38:02;98561.63;;;3.17;65.84
55990;BME280;41875;55.806;38.082;2022-12-11T02:40:38;98550.03;;;3.19;65.73
55990;BME280;41875;55.806;38.082;2022-12-11T02:43:10;98564.63;;;3.02;66.61
55990;BME280;41875;55.806;38.082;2022-12-11T02:45:42;98567.47;;;2.89;67.23
55990;BME280;41875;55.806;38.082;2022-12-11T02:48:14;98574.53;;;2.99;66.98
55990;BME280;41875;55.806;38.082;2022-12-11T02:50:46;98582.63;;;2.96;67.38
55990;BME280;41875;55.806;38.082;2022-12-11T02:53:17;98586.28;;;2.73;67.44
55990;BME280;41875;55.806;38.082;2022-12-11T02:55:51;98586.25;;;3.04;67.16
55990;BME280;41875;55.806;38.082;2022-12-11T02:58:24;98598.41;;;3.35;65.98
55990;BME280;41875;55.806;38.082;2022-12-11T03:00:55;98600.78;;;3.38;65.90
55990;BME280;41875;55.806;38.082;2022-12-11T03:03:24;98601.31;;;3.32;64.94
55990;BME280;41875;55.806;38.082;2022-12-11T03:05:52;98607.06;;;2.75;67.08
55990;BME280;41875;55.806;38.082;2022-12-11T03:08:21;98604.09;;;2.58;67.96
55990;BME280;41875;55.806;38.082;2022-12-11T03:10:50;98596.94;;;2.61;68.55
55990;BME280;41875;55.806;38.082;2022-12-11T03:13:19;98597.69;;;2.72;68.05
55990;BME280;41875;55.806;38.082;2022-12-11T03:16:00;98608.91;;;2.53;68.90
55990;BME280;41875;55.806;38.082;2022-12-11T03:18:35;98611.25;;;2.56;68.49
55990;BME280;41875;55.806;38.082;2022-12-11T03:21:10;98611.91;;;2.27;69.91
55990;BME280;41875;55.806;38.082;2022-12-11T03:23:48;98605.09;;;2.67;68.74
55990;BME280;41875;55.806;38.082;2022-12-11T03:26:20;98602.88;;;2.63;68.42
55990;BME280;41875;55.806;38.082;2022-12-11T03:28:55;98609.00;;;2.42;69.49
55990;BME280;41875;55.806;38.082;2022-12-11T03:31:30;98612.88;;;2.26;69.51
55990;BME280;41875;55.806;38.082;2022-12-11T03:34:07;98621.97;;;2.53;68.79
55990;BME280;41875;55.806;38.082;2022-12-11T03:36:39;98631.59;;;3.25;66.55
55990;BME280;41875;55.806;38.082;2022-12-11T03:39:12;98635.00;;;3.05;66.55
55990;BME280;41875;55.806;38.082;2022-12-11T03:41:43;98639.97;;;3.09;66.27
55990;BME280;41875;55.806;38.082;2022-12-11T03:44:15;98641.00;;;2.96;66.76
55990;BME280;41875;55.806;38.082;2022-12-11T03:46:46;98627.13;;;2.65;67.47
55990;BME280;41875;55.806;38.082;2022-12-11T03:49:16;98623.63;;;2.54;68.06
55990;BME280;41875;55.806;38.082;2022-12-11T03:51:49;98623.38;;;2.36;68.73
55990;BME280;41875;55.806;38.082;2022-12-11T03:54:19;98651.63;;;2.42;68.88
55990;BME280;41875;55.806;38.082;2022-12-11T03:56:50;98644.19;;;2.17;69.64
55990;BME280;41875;55.806;38.082;2022-12-11T03:59:20;98654.16;;;2.54;68.62
55990;BME280;41875;55.806;38.082;2022-12-11T04:01:50;98655.38;;;2.07;69.79
55990;BME280;41875;55.806;38.082;2022-12-11T04:04:19;98657.75;;;1.78;71.24
55990;BME280;41875;55.806;38.082;2022-12-11T04:06:47;98654.78;;;2.67;69.43
55990;BME280;41875;55.806;38.082;2022-12-11T04:09:16;98659.31;;;2.65;68.08
55990;BME280;41875;55.806;38.082;2022-12-11T04:11:44;98664.47;;;3.08;67.05
55990;BME280;41875;55.806;38.082;2022-12-11T04:14:13;98669.47;;;2.58;68.04
55990;BME280;41875;55.806;38.082;2022-12-11T04:17:01;98671.50;;;2.34;69.39
55990;BME280;41875;55.806;38.082;2022-12-11T04:19:32;98677.63;;;2.23;70.29
55990;BME280;41875;55.806;38.082;2022-12-11T04:22:18;98687.84;;;2.47;70.05
55990;BME280;41875;55.806;38.082;2022-12-11T04:25:18;98678.69;;;2.84;67.66
55990;BME280;41875;55.806;38.082;2022-12-11T04:27:47;98680.31;;;2.33;69.08
55990;BME280;41875;55.806;38.082;2022-12-11T04:30:21;98676.41;;;2.27;69.42
55990;BME280;41875;55.806;38.082;2022-12-11T04:32:56;98654.66;;;2.05;69.98
55990;BME280;41875;55.806;38.082;2022-12-11T04:35:25;98685.28;;;2.15;70.53
55990;BME280;41875;55.806;38.082;2022-12-11T04:37:56;98680.53;;;1.76;71.02
55990;BME280;41875;55.806;38.082;2022-12-11T04:40:25;98681.47;;;2.40;69.80
55990;BME280;41875;55.806;38.082;2022-12-11T04:42:53;98671.97;;;2.18;69.54
55990;BME280;41875;55.806;38.082;2022-12-11T04:45:21;98679.75;;;2.50;68.71
55990;BME280;41875;55.806;38.082;2022-12-11T04:47:50;98664.47;;;1.48;71.89
55990;BME280;41875;55.806;38.082;2022-12-11T04:50:20;98681.25;;;1.66;71.79
55990;BME280;41875;55.806;38.082;2022-12-11T04:52:49;98680.22;;;2.02;70.63
55990;BME280;41875;55.806;38.082;2022-12-11T04:55:17;98673.97;;;2.14;70.00
55990;BME280;41875;55.806;38.082;2022-12-11T04:57:46;98688.00;;;2.13;70.68
55990;BME280;41875;55.806;38.082;2022-12-11T05:00:15;98695.41;;;2.08;69.75
55990;BME280;41875;55.806;38.082;2022-12-11T05:02:44;98700.44;;;2.21;69.42
55990;BME280;41875;55.806;38.082;2022-12-11T05:05:13;98689.25;;;2.51;68.23
55990;BME280;41875;55.806;38.082;2022-12-11T05:07:42;98694.09;;;2.56;67.75
55990;BME280;41875;55.806;38.082;2022-12-11T05:10:28;98694.41;;;2.41;68.43
55990;BME280;41875;55.806;38.082;2022-12-11T05:12:56;98689.25;;;2.51;68.03
55990;BME280;41875;55.806;38.082;2022-12-11T05:15:24;98692.59;;;1.88;70.87
55990;BME280;41875;55.806;38.082;2022-12-11T05:17:53;98696.50;;;1.94;69.83
55990;BME280;41875;55.806;38.082;2022-12-11T05:20:21;98701.34;;;1.98;70.05
55990;BME280;41875;55.806;38.082;2022-12-11T05:22:51;98694.97;;;2.24;69.38
55990;BME280;41875;55.806;38.082;2022-12-11T05:25:19;98702.72;;;2.14;68.81
55990;BME280;41875;55.806;38.082;2022-12-11T05:27:48;98709.13;;;2.42;68.01
55990;BME280;41875;55.806;38.082;2022-12-11T05:30:17;98711.22;;;2.27;69.02
55990;BME280;41875;55.806;38.082;2022-12-11T05:32:45;98714.25;;;1.79;71.01
55990;BME280;41875;55.806;38.082;2022-12-11T05:35:14;98724.56;;;1.80;70.84
55990;BME280;41875;55.806;38.082;2022-12-11T05:37:42;98720.84;;;1.94;69.45
55990;BME280;41875;55.806;38.082;2022-12-11T05:40:12;98731.59;;;1.68;71.08
55990;BME280;41875;55.806;38.082;2022-12-11T05:42:41;98730.63;;;1.81;70.36
55990;BME280;41875;55.806;38.082;2022-12-11T05:45:10;98743.41;;;1.84;70.43
55990;BME280;41875;55.806;38.082;2022-12-11T05:47:39;98724.25;;;1.40;70.80
55990;BME280;41875;55.806;38.082;2022-12-11T05:50:08;98741.22;;;1.68;70.23
55990;BME280;41875;55.806;38.082;2022-12-11T05:52:37;98743.25;;;1.42;70.99
55990;BME280;41875;55.806;38.082;2022-12-11T05:55:06;98746.63;;;1.88;70.51
55990;BME280;41875;55.806;38.082;2022-12-11T05:57:37;98753.97;;;1.94;69.79
55990;BME280;41875;55.806;38.082;2022-12-11T06:00:10;98762.91;;;2.24;69.22
55990;BME280;41875;55.806;38.082;2022-12-11T06:02:39;98776.06;;;1.90;69.73
55990;BME280;41875;55.806;38.082;2022-12-11T06:05:07;98787.84;;;1.73;71.02
55990;BME280;41875;55.806;38.082;2022-12-11T06:07:37;98787.38;;;1.56;71.16
55990;BME280;41875;55.806;38.082;2022-12-11T06:10:06;98794.13;;;1.81;70.00
55990;BME280;41875;55.806;38.082;2022-12-11T06:12:34;98794.81;;;1.95;69.23
55990;BME280;41875;55.806;38.082;2022-12-11T06:15:06;98806.22;;;1.60;70.55
55990;BME280;41875;55.806;38.082;2022-12-11T06:17:35;98818.69;;;1.45;71.39
55990;BME280;41875;55.806;38.082;2022-12-11T06:20:10;98810.06;;;1.56;70.86
55990;BME280;41875;55.806;38.082;2022-12-11T06:22:40;98823.06;;;1.90;69.43
55990;BME280;41875;55.806;38.082;2022-12-11T06:25:12;98826.53;;;1.79;70.72
55990;BME280;41875;55.806;38.082;2022-12-11T06:27:40;98833.25;;;2.04;69.11
55990;BME280;41875;55.806;38.082;2022-12-11T06:30:13;98840.19;;;1.71;69.47
55990;BME280;41875;55.806;38.082;2022-12-11T06:32:42;98841.97;;;1.93;69.09
55990;BME280;41875;55.806;38.082;2022-12-11T06:35:11;98850.03;;;1.67;70.74
55990;BME280;41875;55.806;38.082;2022-12-11T06:37:40;98832.31;;;1.94;68.45
55990;BME280;41875;55.806;38.082;2022-12-11T06:40:08;98845.28;;;1.50;70.72
55990;BME280;41875;55.806;38.082;2022-12-11T06:42:38;98839.13;;;1.62;70.02
55990;BME280;41875;55.806;38.082;2022-12-11T06:45:07;98844.34;;;1.51;70.06
55990;BME280;41875;55.806;38.082;2022-12-11T06:47:38;98845.53;;;1.47;70.43
55990;BME280;41875;55.806;38.082;2022-12-11T06:50:06;98845.00;;;1.19;70.72
55990;BME280;41875;55.806;38.082;2022-12-11T06:52:35;98845.47;;;1.24;70.75
55990;BME280;41875;55.806;38.082;2022-12-11T06:55:04;98848.34;;;1.44;70.28
55990;BME280;41875;55.806;38.082;2022-12-11T06:57:33;98844.38;;;1.15;71.56
55990;BME280;41875;55.806;38.082;2022-12-11T07:00:03;98848.56;;;1.29;71.06
55990;BME280;41875;55.806;38.082;2022-12-11T07:02:31;98849.31;;;1.43;70.17
55990;BME280;41875;55.806;38.082;2022-12-11T07:05:02;98838.00;;;1.31;70.34
55990;BME280;41875;55.806;38.082;2022-12-11T07:07:31;98837.69;;;1.81;69.34
55990;BME280;41875;55.806;38.082;2022-12-11T07:09:59;98838.16;;;1.75;68.73
55990;BME280;41875;55.806;38.082;2022-12-11T07:12:34;98844.91;;;1.77;68.98
55990;BME280;41875;55.806;38.082;2022-12-11T07:15:04;98845.03;;;1.53;69.86
55990;BME280;41875;55.806;38.082;2022-12-11T07:17:33;98850.50;;;1.50;70.22
55990;BME280;41875;55.806;38.082;2022-12-11T07:20:04;98836.97;;;1.67;69.06
55990;BME280;41875;55.806;38.082;2022-12-11T07:22:32;98852.28;;;1.49;69.37
55990;BME280;41875;55.806;38.082;2022-12-11T07:25:01;98854.91;;;1.83;69.07
55990;BME280;41875;55.806;38.082;2022-12-11T07:27:29;98856.94;;;1.80;68.76
55990;BME280;41875;55.806;38.082;2022-12-11T07:29:58;98855.34;;;2.11;67.13
55990;BME280;41875;55.806;38.082;2022-12-11T07:32:28;98883.69;;;2.39;66.80
55990;BME280;41875;55.806;38.082;2022-12-11T07:34:56;98888.44;;;2.34;66.30
55990;BME280;41875;55.806;38.082;2022-12-11T07:37:26;98896.66;;;2.29;66.29
55990;BME280;41875;55.806;38.082;2022-12-11T07:39:55;98883.94;;;2.13;67.17
55990;BME280;41875;55.806;38.082;2022-12-11T07:42:23;98875.06;;;1.81;68.53
55990;BME280;41875;55.806;38.082;2022-12-11T07:44:52;98879.69;;;2.01;67.95
55990;BME280;41875;55.806;38.082;2022-12-11T07:47:20;98880.78;;;1.98;68.10
55990;BME280;41875;55.806;38.082;2022-12-11T07:49:49;98889.03;;;2.49;66.07
55990;BME280;41875;55.806;38.082;2022-12-11T07:52:17;98894.19;;;1.93;67.08
55990;BME280;41875;55.806;38.082;2022-12-11T07:54:47;98908.06;;;1.94;67.49
55990;BME280;41875;55.806;38.082;2022-12-11T07:57:15;98896.34;;;1.65;68.02
55990;BME280;41875;55.806;38.082;2022-12-11T07:59:45;98872.94;;;1.75;68.07
55990;BME280;41875;55.806;38.082;2022-12-11T08:02:14;98894.44;;;1.79;67.70
55990;BME280;41875;55.806;38.082;2022-12-11T08:04:44;98897.97;;;1.55;68.75
55990;BME280;41875;55.806;38.082;2022-12-11T08:07:13;98887.19;;;1.82;68.35
55990;BME280;41875;55.806;38.082;2022-12-11T08:09:42;98876.38;;;1.87;67.86
55990;BME280;41875;55.806;38.082;2022-12-11T08:12:12;98893.59;;;1.78;68.50
55990;BME280;41875;55.806;38.082;2022-12-11T08:14:40;98873.16;;;2.06;66.92
55990;BME280;41875;55.806;38.082;2022-12-11T08:17:09;98908.78;;;2.30;65.83
55990;BME280;41875;55.806;38.082;2022-12-11T08:19:39;98902.84;;;2.17;66.04
55990;BME280;41875;55.806;38.082;2022-12-11T08:22:11;98901.34;;;2.90;65.07
55990;BME280;41875;55.806;38.082;2022-12-11T08:24:40;98904.78;;;2.58;65.25
55990;BME280;41875;55.806;38.082;2022-12-11T08:27:09;98898.59;;;2.71;64.26
55990;BME280;41875;55.806;38.082;2022-12-11T08:29:39;98909.16;;;1.80;67.40
55990;BME280;41875;55.806;38.082;2022-12-11T08:32:10;98899.06;;;1.87;67.35
55990;BME280;41875;55.806;38.082;2022-12-11T08:34:47;98916.97;;;2.03;67.93
55990;BME280;41875;55.806;38.082;2022-12-11T08:37:22;98876.50;;;1.86;66.97
55990;BME280;41875;55.806;38.082;2022-12-11T08:40:19;98866.69;;;1.19;70.10
55990;BME280;41875;55.806;38.082;2022-12-11T08:43:01;98858.56;;;1.47;67.79
55990;BME280;41875;55.806;38.082;2022-12-11T08:45:36;98926.94;;;1.97;66.89
55990;BME280;41875;55.806;38.082;2022-12-11T08:48:05;98912.47;;;1.82;67.57
55990;BME280;41875;55.806;38.082;2022-12-11T08:50:33;98936.66;;;1.61;68.96
55990;BME280;41875;55.806;38.082;2022-12-11T08:53:02;98925.50;;;1.82;67.71
55990;BME280;41875;55.806;38.082;2022-12-11T08:55:31;98925.06;;;2.00;67.01
55990;BME280;41875;55.806;38.082;2022-12-11T08:57:59;98931.31;;;2.54;65.15
55990;BME280;41875;55.806;38.082;2022-12-11T09:00:28;98938.59;;;1.93;66.37
55990;BME280;41875;55.806;38.082;2022-12-11T09:03:00;98938.59;;;2.16;66.10
55990;BME280;41875;55.806;38.082;2022-12-11T09:05:28;98940.75;;;2.11;65.90
55990;BME280;41875;55.806;38.082;2022-12-11T09:07:57;98947.97;;;1.85;67.37
55990;BME280;41875;55.806;38.082;2022-12-11T09:10:25;98956.16;;;1.91;66.85
55990;BME280;41875;55.806;38.082;2022-12-11T09:12:54;98963.66;;;1.85;67.34
55990;BME280;41875;55.806;38.082;2022-12-11T09:15:22;98967.44;;;1.92;67.24
55990;BME280;41875;55.806;38.082;2022-12-11T09:17:53;98961.50;;;2.47;65.28
55990;BME280;41875;55.806;38.082;2022-12-11T09:20:23;98970.78;;;2.17;65.71
55990;BME280;41875;55.806;38.082;2022-12-11T09:22:51;98966.03;;;1.99;66.60
55990;BME280;41875;55.806;38.082;2022-12-11T09:25:20;98970.22;;;1.55;68.70
55990;BME280;41875;55.806;38.082;2022-12-11T09:27:48;98965.53;;;2.05;67.34
55990;BME280;41875;55.806;38.082;2022-12-11T09:30:17;98964.84;;;2.03;66.38
55990;BME280;41875;55.806;38.082;2022-12-11T09:32:45;98975.06;;;2.18;66.44
55990;BME280;41875;55.806;38.082;2022-12-11T09:35:14;98980.03;;;1.87;66.47
55990;BME280;41875;55.806;38.082;2022-12-11T09:37:44;98977.19;;;2.01;65.96
55990;BME280;41875;55.806;38.082;2022-12-11T09:40:13;98985.16;;;2.45;65.12
55990;BME280;41875;55.806;38.082;2022-12-11T09:42:50;98986.44;;;1.82;66.80
55990;BME280;41875;55.806;38.082;2022-12-11T09:45:20;98991.22;;;2.46;65.55
55990;BME280;41875;55.806;38.082;2022-12-11T09:47:51;98993.91;;;1.87;65.92
55990;BME280;41875;55.806;38.082;2022-12-11T09:50:23;98990.13;;;2.03;66.54
55990;BME280;41875;55.806;38.082;2022-12-11T09:53:01;98991.34;;;2.33;65.54
55990;BME280;41875;55.806;38.082;2022-12-11T09:55:40;99000.47;;;2.27;65.40
55990;BME280;41875;55.806;38.082;2022-12-11T09:58:18;98997.97;;;2.48;65.51
55990;BME280;41875;55.806;38.082;2022-12-11T10:00:55;99011.84;;;1.92;66.87
55990;BME280;41875;55.806;38.082;2022-12-11T10:06:17;99007.25;;;2.07;66.43
55990;BME280;41875;55.806;38.082;2022-12-11T10:08:59;99010.53;;;1.86;67.02
55990;BME280;41875;55.806;38.082;2022-12-11T10:14:29;99022.78;;;1.97;66.52
55990;BME280;41875;55.806;38.082;2022-12-11T10:17:10;99015.72;;;2.33;66.59
55990;BME280;41875;55.806;38.082;2022-12-11T10:19:40;99021.53;;;2.37;64.99
55990;BME280;41875;55.806;38.082;2022-12-11T10:22:15;99016.38;;;2.01;66.00
55990;BME280;41875;55.806;38.082;2022-12-11T10:24:53;99014.56;;;1.79;67.68
55990;BME280;41875;55.806;38.082;2022-12-11T10:27:39;99015.53;;;1.42;68.54
55990;BME280;41875;55.806;38.082;2022-12-11T10:30:14;99015.56;;;1.29;68.88
55990;BME280;41875;55.806;38.082;2022-12-11T10:32:52;99009.63;;;1.27;68.52
55990;BME280;41875;55.806;38.082;2022-12-11T10:35:30;99002.69;;;1.39;68.80
55990;BME280;41875;55.806;38.082;2022-12-11T10:38:09;98998.44;;;1.14;70.09
55990;BME280;41875;55.806;38.082;2022-12-11T10:40:42;98999.38;;;1.48;67.92
55990;BME280;41875;55.806;38.082;2022-12-11T10:43:11;98996.69;;;1.50;67.71
55990;BME280;41875;55.806;38.082;2022-12-11T10:45:49;98998.75;;;1.80;66.89
55990;BME280;41875;55.806;38.082;2022-12-11T10:48:19;98999.03;;;1.53;67.86
55990;BME280;41875;55.806;38.082;2022-12-11T10:50:56;98972.91;;;0.82;68.96
55990;BME280;41875;55.806;38.082;2022-12-11T10:53:26;98977.75;;;1.35;67.57
55990;BME280;41875;55.806;38.082;2022-12-11T10:55:57;99001.09;;;1.61;67.54
55990;BME280;41875;55.806;38.082;2022-12-11T10:58:28;99007.25;;;1.24;68.36
55990;BME280;41875;55.806;38.082;2022-12-11T11:01:08;98995.97;;;1.48;67.28
55990;BME280;41875;55.806;38.082;2022-12-11T11:03:51;98999.66;;;2.26;65.42
55990;BME280;41875;55.806;38.082;2022-12-11T11:06:22;99000.59;;;2.71;63.87
55990;BME280;41875;55.806;38.082;2022-12-11T11:08:53;99008.91;;;2.65;63.46
55990;BME280;41875;55.806;38.082;2022-12-11T11:11:26;99004.56;;;1.37;67.88
55990;BME280;41875;55.806;38.082;2022-12-11T11:14:09;99002.69;;;1.75;67.05
55990;BME280;41875;55.806;38.082;2022-12-11T11:16:40;98993.41;;;1.82;66.58
55990;BME280;41875;55.806;38.082;2022-12-11T11:19:18;99003.41;;;1.88;66.55
55990;BME280;41875;55.806;38.082;2022-12-11T11:21:51;98990.47;;;1.40;68.08
55990;BME280;41875;55.806;38.082;2022-12-11T11:24:25;98982.88;;;1.83;66.21
55990;BME280;41875;55.806;38.082;2022-12-11T11:26:56;98997.63;;;2.07;65.58
55990;BME280;41875;55.806;38.082;2022-12-11T11:29:41;98997.97;;;2.14;65.02
55990;BME280;41875;55.806;38.082;2022-12-11T11:32:22;98995.59;;;2.00;66.44
55990;BME280;41875;55.806;38.082;2022-12-11T11:34:51;99011.16;;;1.54;66.80
55990;BME280;41875;55.806;38.082;2022-12-11T11:37:30;98990.63;;;1.49;67.22
55990;BME280;41875;55.806;38.082;2022-12-11T11:40:04;98991.03;;;0.83;70.05
55990;BME280;41875;55.806;38.082;2022-12-11T11:42:42;98986.44;;;1.35;68.33
55990;BME280;41875;55.806;38.082;2022-12-11T11:45:16;98987.50;;;1.44;67.98
55990;BME280;41875;55.806;38.082;2022-12-11T11:47:54;98995.38;;;1.20;68.17
55990;BME280;41875;55.806;38.082;2022-12-11T11:50:29;98994.34;;;1.70;66.77
55990;BME280;41875;55.806;38.082;2022-12-11T11:53:04;98995.28;;;1.57;67.20
55990;BME280;41875;55.806;38.082;2022-12-11T11:55:40;98990.13;;;2.03;66.22
55990;BME280;41875;55.806;38.082;2022-12-11T11:58:17;99001.06;;;2.08;65.44
55990;BME280;41875;55.806;38.082;2022-12-11T12:00:52;98997.59;;;1.85;66.26
55990;BME280;41875;55.806;38.082;2022-12-11T12:03:22;98998.09;;;1.54;66.97
55990;BME280;41875;55.806;38.082;2022-12-11T12:05:55;99003.06;;;2.04;65.49
55990;BME280;41875;55.806;38.082;2022-12-11T12:08:37;98993.81;;;1.53;66.75
55990;BME280;41875;55.806;38.082;2022-12-11T12:11:16;98993.38;;;1.59;67.48
55990;BME280;41875;55.806;38.082;2022-12-11T12:13:58;98994.47;;;1.32;68.76
55990;BME280;41875;55.806;38.082;2022-12-11T12:17:00;99012.13;;;1.29;67.99
55990;BME280;41875;55.806;38.082;2022-12-11T12:19:44;99019.03;;;1.65;67.47
55990;BME280;41875;55.806;38.082;2022-12-11T12:22:23;99020.25;;;1.37;67.59
55990;BME280;41875;55.806;38.082;2022-12-11T12:25:02;98994.53;;;0.95;68.23
55990;BME280;41875;55.806;38.082;2022-12-11T12:27:44;99010.34;;;1.29;69.04
55990;BME280;41875;55.806;38.082;2022-12-11T12:30:20;98997.00;;;1.45;67.63
55990;BME280;41875;55.806;38.082;2022-12-11T12:33:03;99006.22;;;1.27;68.32
55990;BME280;41875;55.806;38.082;2022-12-11T12:35:54;99010.88;;;1.34;67.81
55990;BME280;41875;55.806;38.082;2022-12-11T12:38:40;99013.19;;;1.26;68.26
55990;BME280;41875;55.806;38.082;2022-12-11T12:41:17;99014.38;;;1.58;67.51
55990;BME280;41875;55.806;38.082;2022-12-11T12:44:12;99004.16;;;2.13;66.21
55990;BME280;41875;55.806;38.082;2022-12-11T12:46:56;99010.91;;;1.93;66.28
55990;BME280;41875;55.806;38.082;2022-12-11T12:49:38;99014.13;;;1.61;66.56
55990;BME280;41875;55.806;38.082;2022-12-11T12:52:12;99020.53;;;1.92;65.40
55990;BME280;41875;55.806;38.082;2022-12-11T12:54:45;99022.41;;;1.79;65.70
55990;BME280;41875;55.806;38.082;2022-12-11T12:57:44;99023.16;;;2.04;65.61
55990;BME280;41875;55.806;38.082;2022-12-11T13:00:35;99012.63;;;1.70;66.04
55990;BME280;41875;55.806;38.082;2022-12-11T13:03:35;99024.28;;;1.77;66.04
55990;BME280;41875;55.806;38.082;2022-12-11T13:06:07;99023.56;;;1.15;67.25
55990;BME280;41875;55.806;38.082;2022-12-11T13:08:41;99004.34;;;1.76;66.00
55990;BME280;41875;55.806;38.082;2022-12-11T13:11:37;99022.22;;;1.58;66.05
55990;BME280;41875;55.806;38.082;2022-12-11T13:14:28;98994.91;;;1.26;67.03
55990;BME280;41875;55.806;38.082;2022-12-11T13:19:00;99027.50;;;1.20;67.93
55990;BME280;41875;55.806;38.082;2022-12-11T13:22:03;99006.50;;;1.22;68.08
55990;BME280;41875;55.806;38.082;2022-12-11T13:24:57;99007.06;;;1.74;66.60
55990;BME280;41875;55.806;38.082;2022-12-11T13:27:36;98996.81;;;1.60;66.70
55990;BME280;41875;55.806;38.082;2022-12-11T13:30:18;99004.97;;;1.44;67.22
55990;BME280;41875;55.806;38.082;2022-12-11T13:33:13;99000.78;;;1.77;65.54
55990;BME280;41875;55.806;38.082;2022-12-11T13:35:45;98998.63;;;1.35;67.17
55990;BME280;41875;55.806;38.082;2022-12-11T13:38:16;98990.03;;;1.57;66.83